Time;durP1;ratioP1;P1;durP2;ratioP2;P2;SDS_P1;SDS_P2;PMS_P1;PMS_P2;Temp;Humidity;BMP_temperature;BMP_pressure;BME280_temperature;BME280_humidity;BME280_pressure;Samples;Min_cycle;Max_cycle;Signal;HPM_P1;HPM_P2
2022/07/05 00:02:22;;;;;;;5.55;1.98;;;;;;;14.56;100.00;98984.72;5002477;28;20758;-70
2022/07/05 00:04:50;;;;;;;3.10;1.67;;;;;;;14.52;100.00;98988.09;5007594;28;20061;-70
2022/07/05 00:07:18;;;;;;;2.30;1.90;;;;;;;14.48;100.00;98993.13;5013370;28;20469;-71
2022/07/05 00:09:51;;;;;;;2.60;1.63;;;;;;;14.19;100.00;98957.38;5002936;28;20081;-69
2022/07/05 00:12:18;;;;;;;2.20;1.40;;;;;;;14.43;100.00;98985.63;5003835;28;20034;-71
2022/07/05 00:14:44;;;;;;;2.30;1.45;;;;;;;14.40;100.00;98990.72;5007933;28;20108;-71
2022/07/05 00:17:10;;;;;;;3.45;2.38;;;;;;;14.43;100.00;98982.91;5018279;28;20112;-70
2022/07/05 00:19:37;;;;;;;4.82;2.03;;;;;;;14.35;100.00;98983.22;4998904;28;20030;-71
2022/07/05 00:22:02;;;;;;;3.95;1.98;;;;;;;14.16;100.00;98976.88;5007070;28;20474;-71
2022/07/05 00:24:28;;;;;;;5.40;2.10;;;;;;;14.22;100.00;98989.59;5005904;28;20109;-71
2022/07/05 00:26:53;;;;;;;5.88;2.10;;;;;;;14.17;100.00;98986.75;5008076;28;20022;-70
2022/07/05 00:29:18;;;;;;;3.47;1.98;;;;;;;14.08;100.00;98984.50;5003845;28;20030;-71
2022/07/05 00:31:44;;;;;;;4.70;1.92;;;;;;;13.96;100.00;98987.94;5009015;28;20035;-71
2022/07/05 00:34:09;;;;;;;3.08;2.17;;;;;;;13.89;100.00;98983.59;5015467;28;20104;-71
2022/07/05 00:36:34;;;;;;;6.63;2.00;;;;;;;13.86;100.00;98981.31;5015785;28;20013;-71
2022/07/05 00:39:01;;;;;;;4.00;1.90;;;;;;;13.77;100.00;98980.75;5011075;28;21276;-70
2022/07/05 00:41:26;;;;;;;3.03;1.90;;;;;;;13.77;100.00;98980.75;5014385;28;20029;-71
2022/07/05 00:43:58;;;;;;;6.28;2.50;;;;;;;13.71;100.00;98987.91;5013601;28;20033;-71
2022/07/05 00:46:24;;;;;;;2.88;1.75;;;;;;;13.69;100.00;98984.56;5005948;28;20045;-71
2022/07/05 00:48:49;;;;;;;4.35;2.00;;;;;;;13.84;100.00;98995.16;5006580;28;20044;-71
2022/07/05 00:51:15;;;;;;;2.90;1.88;;;;;;;13.64;100.00;98970.78;5012546;28;20022;-71
2022/07/05 00:53:42;;;;;;;2.72;1.60;;;;;;;13.78;100.00;98969.66;5012624;28;20160;-70
2022/07/05 00:56:07;;;;;;;4.25;1.75;;;;;;;13.88;100.00;98990.91;5014737;28;20030;-71
2022/07/05 00:58:33;;;;;;;3.58;1.90;;;;;;;13.94;100.00;98975.63;5012596;28;20044;-71
2022/07/05 01:01:01;;;;;;;3.13;1.73;;;;;;;14.14;100.00;99000.75;5011139;28;20535;-70
2022/07/05 01:03:27;;;;;;;2.87;1.60;;;;;;;13.94;100.00;98997.38;5014768;28;20050;-70
2022/07/05 01:05:53;;;;;;;4.75;2.20;;;;;;;13.80;100.00;99007.50;5014915;28;20060;-70
2022/07/05 01:08:19;;;;;;;3.53;1.67;;;;;;;13.65;100.00;99004.25;5012356;28;20025;-70
2022/07/05 01:10:45;;;;;;;7.38;1.90;;;;;;;13.56;100.00;99003.69;5013635;28;20395;-70
2022/07/05 01:13:10;;;;;;;2.67;1.60;;;;;;;13.50;100.00;99010.81;5015140;28;20033;-71
2022/07/05 01:15:35;;;;;;;1.75;1.48;;;;;;;13.42;100.00;99005.63;5010017;28;20175;-71
2022/07/05 01:18:01;;;;;;;4.35;1.80;;;;;;;13.50;100.00;99008.09;5014867;28;20048;-70
2022/07/05 01:20:26;;;;;;;3.38;1.55;;;;;;;13.33;100.00;98985.19;5014306;28;20486;-71
2022/07/05 01:22:53;;;;;;;8.43;1.77;;;;;;;13.37;100.00;99019.03;5013569;28;20453;-71
2022/07/05 01:25:20;;;;;;;9.25;1.80;;;;;;;13.29;100.00;99011.13;5014335;28;20025;-70
2022/07/05 01:27:48;;;;;;;4.03;2.00;;;;;;;13.35;100.00;99011.09;5014119;28;20435;-70
2022/07/05 01:30:14;;;;;;;10.07;1.77;;;;;;;13.29;100.00;99011.97;5011173;28;20555;-69
2022/07/05 01:32:39;;;;;;;4.00;2.05;;;;;;;13.25;100.00;99010.69;5006126;28;22649;-70
2022/07/05 01:35:05;;;;;;;2.42;1.70;;;;;;;13.30;100.00;99026.38;5009921;28;20037;-70
2022/07/05 01:37:31;;;;;;;5.65;2.60;;;;;;;13.07;100.00;98996.97;5012076;28;20025;-71
2022/07/05 01:39:58;;;;;;;8.77;2.33;;;;;;;13.13;100.00;99020.56;5019142;28;20524;-71
2022/07/05 01:42:23;;;;;;;3.25;2.00;;;;;;;13.08;100.00;98999.47;5009423;28;20045;-70
2022/07/05 01:44:49;;;;;;;5.15;1.98;;;;;;;13.14;100.00;99000.50;5008221;28;20411;-71
2022/07/05 01:47:15;;;;;;;3.40;1.70;;;;;;;13.18;100.00;98988.16;5008016;28;20022;-70
2022/07/05 01:49:45;;;;;;;5.70;1.60;;;;;;;13.24;100.00;99009.03;5009317;28;20112;-70
2022/07/05 01:52:12;;;;;;;5.90;1.80;;;;;;;13.17;100.00;98986.47;5012066;28;20030;-71
2022/07/05 01:54:39;;;;;;;4.78;1.50;;;;;;;13.40;100.00;99001.47;5010406;28;20513;-70
2022/07/05 01:57:05;;;;;;;3.70;1.77;;;;;;;13.06;100.00;98984.44;5009603;28;20034;-70
2022/07/05 01:59:36;;;;;;;2.53;1.77;;;;;;;13.14;100.00;99005.94;5007422;28;20089;-71
2022/07/05 02:02:02;;;;;;;4.88;1.58;;;;;;;13.07;100.00;99010.53;5006615;28;20022;-70
2022/07/05 02:04:29;;;;;;;5.68;1.60;;;;;;;12.97;100.00;99007.44;5005007;28;20029;-71
2022/07/05 02:06:54;;;;;;;4.25;1.70;;;;;;;12.87;100.00;99011.47;5011272;28;20488;-70
2022/07/05 02:09:19;;;;;;;3.25;2.00;;;;;;;12.82;100.00;98994.97;5006283;28;20125;-70
2022/07/05 02:11:45;;;;;;;2.20;1.50;;;;;;;12.77;100.00;99000.19;5006106;28;20037;-71
2022/07/05 02:14:11;;;;;;;3.30;1.88;;;;;;;12.81;100.00;99008.75;5009663;28;20026;-70
2022/07/05 02:16:36;;;;;;;4.93;1.75;;;;;;;12.77;100.00;98997.50;5027542;22;20027;-71
2022/07/05 02:19:02;;;;;;;2.65;1.67;;;;;;;12.70;100.00;99002.91;5029529;28;20064;-69
2022/07/05 02:21:27;;;;;;;2.40;1.80;;;;;;;12.68;100.00;99005.03;5027913;28;20494;-69
2022/07/05 02:23:54;;;;;;;3.22;1.80;;;;;;;12.69;100.00;98998.53;5025677;28;20033;-70
2022/07/05 02:26:19;;;;;;;3.22;2.13;;;;;;;12.60;100.00;99010.69;5034699;28;20112;-70
2022/07/05 02:28:45;;;;;;;3.33;1.85;;;;;;;12.54;100.00;99010.69;5030754;28;20108;-70
2022/07/05 02:31:10;;;;;;;4.53;2.00;;;;;;;12.40;100.00;98982.75;5034075;28;20025;-70
2022/07/05 02:33:36;;;;;;;3.17;1.83;;;;;;;12.41;100.00;99004.22;5029948;28;20014;-70
2022/07/05 02:36:13;;;;;;;3.03;2.00;;;;;;;12.41;100.00;99009.66;5029976;28;20033;-70
2022/07/05 02:38:39;;;;;;;6.05;2.00;;;;;;;12.41;100.00;99000.69;5021705;28;20406;-69
2022/07/05 02:41:06;;;;;;;3.63;1.70;;;;;;;12.59;100.00;99013.59;5027791;28;20038;-69
2022/07/05 02:43:32;;;;;;;2.92;1.40;;;;;;;12.57;100.00;99007.53;5030692;28;20025;-70
2022/07/05 02:45:57;;;;;;;4.78;1.40;;;;;;;12.69;100.00;99006.69;5025346;28;20083;-69
2022/07/05 02:48:23;;;;;;;1.77;1.08;;;;;;;12.58;100.00;98988.34;5022795;28;20025;-69
2022/07/05 02:50:48;;;;;;;2.53;1.27;;;;;;;12.54;100.00;99018.81;5027023;28;20040;-70
2022/07/05 02:53:13;;;;;;;3.53;1.67;;;;;;;12.42;100.00;99015.94;5027692;28;20187;-70
2022/07/05 02:55:39;;;;;;;2.95;1.60;;;;;;;12.30;100.00;99013.00;5027278;28;20041;-70
2022/07/05 02:58:04;;;;;;;2.78;1.40;;;;;;;12.15;100.00;99006.94;5025721;28;20052;-70
2022/07/05 03:00:29;;;;;;;2.97;1.60;;;;;;;12.02;100.00;99003.19;5031745;28;20037;-70
2022/07/05 03:02:55;;;;;;;2.20;1.38;;;;;;;12.22;100.00;99013.22;5031298;28;20044;-70
2022/07/05 03:05:20;;;;;;;4.07;1.35;;;;;;;12.26;100.00;99018.03;5031555;28;20021;-70
2022/07/05 03:07:45;;;;;;;2.40;1.20;;;;;;;12.37;100.00;99008.41;5025114;28;20966;-71
2022/07/05 03:10:11;;;;;;;3.40;1.48;;;;;;;12.41;100.00;99014.25;5026162;28;20037;-70
2022/07/05 03:12:36;;;;;;;2.03;1.25;;;;;;;12.16;100.00;98995.91;5027071;28;20025;-70
2022/07/05 03:15:01;;;;;;;4.63;1.35;;;;;;;12.28;100.00;99010.50;5026318;28;20112;-70
2022/07/05 03:17:27;;;;;;;2.75;1.55;;;;;;;12.41;100.00;99014.25;5022710;28;20064;-70
2022/07/05 03:19:52;;;;;;;4.20;1.70;;;;;;;12.31;100.00;99021.97;5032776;28;20072;-70
2022/07/05 03:22:17;;;;;;;6.70;1.90;;;;;;;12.20;100.00;99018.84;5030422;28;20025;-70
2022/07/05 03:24:42;;;;;;;7.80;2.15;;;;;;;12.13;100.00;99019.88;5022856;28;20028;-70
2022/07/05 03:27:08;;;;;;;6.30;2.30;;;;;;;12.10;100.00;99023.84;5028853;28;20036;-70
2022/07/05 03:29:33;;;;;;;3.60;1.83;;;;;;;12.09;100.00;99022.19;5017418;28;20690;-70
2022/07/05 03:31:58;;;;;;;4.63;1.60;;;;;;;12.09;100.00;99022.19;5024999;28;20029;-71
2022/07/05 03:34:24;;;;;;;5.38;1.45;;;;;;;11.94;100.00;99010.69;5031470;28;20039;-70
2022/07/05 03:36:49;;;;;;;2.47;1.70;;;;;;;12.06;100.00;99034.28;5027586;28;20517;-71
2022/07/05 03:39:14;;;;;;;2.47;1.55;;;;;;;12.05;100.00;99032.63;5018822;28;20041;-70
2022/07/05 03:41:39;;;;;;;1.58;1.48;;;;;;;12.04;100.00;99033.66;5031663;28;20033;-69
2022/07/05 03:44:05;;;;;;;2.65;1.70;;;;;;;12.14;100.00;99032.41;5022937;28;20044;-70
2022/07/05 03:46:30;;;;;;;7.45;2.10;;;;;;;12.43;100.00;99037.41;5031237;28;20082;-70
2022/07/05 03:48:55;;;;;;;12.05;2.05;;;;;;;12.42;100.00;99043.91;5023747;28;20032;-70
2022/07/05 03:51:20;;;;;;;5.60;2.05;;;;;;;12.34;100.00;99043.25;5029438;28;20075;-70
2022/07/05 03:53:46;;;;;;;2.10;1.70;;;;;;;12.24;100.00;99046.41;5023809;28;20101;-70
2022/07/05 03:56:11;;;;;;;2.83;2.10;;;;;;;12.18;100.00;99052.63;5028186;28;20411;-65
2022/07/05 03:58:36;;;;;;;7.93;2.20;;;;;;;12.22;100.00;99062.03;5014859;28;20127;-64
2022/07/05 04:01:02;;;;;;;6.00;2.00;;;;;;;12.24;100.00;99057.25;5018552;28;20029;-64
2022/07/05 04:03:27;;;;;;;5.80;2.50;;;;;;;12.18;100.00;99064.34;5029918;28;20121;-64
2022/07/05 04:05:53;;;;;;;3.95;1.83;;;;;;;12.34;100.00;99063.09;5030590;28;20057;-64
2022/07/05 04:08:18;;;;;;;7.53;2.08;;;;;;;12.31;100.00;99063.50;5019789;28;20112;-65
2022/07/05 04:10:43;;;;;;;7.00;1.83;;;;;;;12.33;100.00;99069.56;5021968;28;20052;-64
2022/07/05 04:13:09;;;;;;;4.88;2.25;;;;;;;12.49;100.00;99077.28;5031689;28;20033;-65
2022/07/05 04:15:34;;;;;;;4.13;1.88;;;;;;;12.73;100.00;99077.69;5031208;28;20112;-65
2022/07/05 04:17:59;;;;;;;6.07;1.75;;;;;;;12.78;100.00;99061.59;5027542;28;20037;-64
2022/07/05 04:20:24;;;;;;;2.00;1.48;;;;;;;13.02;100.00;99091.84;5020953;28;20061;-64
2022/07/05 04:22:50;;;;;;;4.15;1.23;;;;;;;13.06;100.00;99066.75;5038596;28;20041;-69
2022/07/05 04:25:16;;;;;;;3.97;1.70;;;;;;;13.32;100.00;99084.91;5040123;28;20025;-70
2022/07/05 04:27:50;;;;;;;3.65;1.73;;;;;;;13.37;100.00;99086.97;5036746;28;20029;-73
2022/07/05 04:30:19;;;;;;;5.78;1.80;;;;;;;13.44;100.00;99090.53;5036677;28;20126;-72
2022/07/05 04:32:44;;;;;;;5.70;1.65;;;;;;;13.42;100.00;99075.47;5036309;28;20571;-75
2022/07/05 04:35:11;;;;;;;3.20;1.70;;;;;;;13.66;100.00;99092.94;5026489;28;20034;-72
2022/07/05 04:37:37;;;;;;;4.07;1.60;;;;;;;13.69;100.00;99089.78;5024414;28;20498;-73
2022/07/05 04:40:04;;;;;;;8.45;1.92;;;;;;;13.75;100.00;99097.06;5029111;28;20048;-71
2022/07/05 04:42:29;;;;;;;3.45;1.83;;;;;;;13.75;100.00;99091.63;5030027;28;20053;-72
2022/07/05 04:44:55;;;;;;;2.05;1.35;;;;;;;13.81;100.00;99088.06;5025663;28;20479;-72
2022/07/05 04:47:20;;;;;;;3.80;1.63;;;;;;;13.84;100.00;99068.56;5027665;28;20033;-72
2022/07/05 04:49:45;;;;;;;2.72;1.42;;;;;;;14.07;100.00;99094.38;5023382;28;20115;-69
2022/07/05 04:52:11;;;;;;;1.77;1.60;;;;;;;14.12;100.00;99098.13;5032433;28;20390;-70
2022/07/05 04:54:36;;;;;;;3.28;1.75;;;;;;;13.98;100.00;99075.59;5025481;28;20679;-71
2022/07/05 04:57:02;;;;;;;3.75;1.45;;;;;;;14.14;100.00;99106.88;5030590;28;20029;-72
2022/07/05 04:59:27;;;;;;;4.68;1.70;;;;;;;14.14;100.00;99090.56;5018042;28;20029;-72
2022/07/05 05:01:53;;;;;;;4.63;1.60;;;;;;;14.28;100.00;99096.75;5028537;28;20033;-70
2022/07/05 05:04:18;;;;;;;4.25;1.92;;;;;;;14.32;100.00;99081.63;5027552;28;20487;-73
2022/07/05 05:06:43;;;;;;;5.63;2.03;;;;;;;14.51;100.00;99092.59;5024608;28;20034;-72
2022/07/05 05:09:09;;;;;;;6.00;1.67;;;;;;;14.71;100.00;99076.97;5017289;28;20044;-69
2022/07/05 05:11:34;;;;;;;7.40;1.70;;;;;;;14.87;100.00;99076.38;5026561;28;20053;-73
2022/07/05 05:13:59;;;;;;;6.47;1.70;;;;;;;15.20;100.00;99093.47;5025683;28;20033;-70
2022/07/05 05:16:25;;;;;;;2.75;1.50;;;;;;;15.38;100.00;99088.00;5019635;28;20025;-70
2022/07/05 05:18:50;;;;;;;2.88;1.25;;;;;;;15.50;100.00;99097.06;5026389;28;20025;-71
2022/07/05 05:21:15;;;;;;;2.58;1.40;;;;;;;15.63;100.00;99079.72;5030781;28;20131;-74
2022/07/05 05:23:41;;;;;;;5.80;1.67;;;;;;;15.81;100.00;99073.44;5027156;28;20368;-75
2022/07/05 05:26:06;;;;;;;5.38;2.08;;;;;;;16.07;100.00;99088.59;5028405;28;20445;-75
2022/07/05 05:28:31;;;;;;;9.90;1.98;;;;;;;16.09;100.00;99069.28;5025262;28;20478;-74
2022/07/05 05:30:57;;;;;;;3.05;2.00;;;;;;;16.30;100.00;99096.03;5023491;28;20033;-70
2022/07/05 05:33:22;;;;;;;6.03;2.17;;;;;;;16.23;100.00;99084.38;5034625;28;20475;-72
2022/07/05 05:35:47;;;;;;;6.03;2.17;;;;;;;16.23;100.00;99092.56;5030072;28;20498;-72
2022/07/05 05:38:13;;;;;;;6.30;2.42;;;;;;;16.38;100.00;99073.84;5026607;28;20017;-69
2022/07/05 05:40:38;;;;;;;4.93;1.98;;;;;;;16.58;100.00;99094.53;5026575;28;20546;-71
2022/07/05 05:43:04;;;;;;;2.50;2.25;;;;;;;16.42;100.00;99099.59;5024633;28;20052;-71
2022/07/05 05:45:29;;;;;;;5.82;2.55;;;;;;;16.60;100.00;99103.34;5028185;28;20068;-70
2022/07/05 05:47:57;;;;;;;5.65;2.47;;;;;;;16.77;100.00;99100.75;5025141;28;20039;-73
2022/07/05 05:50:30;;;;;;;4.97;2.47;;;;;;;16.96;100.00;99096.88;5030934;28;20632;-75
2022/07/05 05:52:55;;;;;;;6.10;2.38;;;;;;;17.05;100.00;99083.66;5023840;28;20560;-73
2022/07/05 05:55:23;;;;;;;4.68;2.35;;;;;;;17.30;98.33;99097.09;5028791;28;20034;-73
2022/07/05 05:57:49;;;;;;;7.25;2.35;;;;;;;17.44;97.21;99097.66;5025614;28;20649;-72
2022/07/05 06:00:15;;;;;;;4.22;2.10;;;;;;;17.67;93.87;99108.53;5025252;28;20099;-72
2022/07/05 06:02:41;;;;;;;3.28;1.98;;;;;;;17.87;91.68;99110.06;5028319;28;20079;-73
2022/07/05 06:05:08;;;;;;;4.13;2.30;;;;;;;17.90;90.95;99102.19;5030383;28;20593;-74
2022/07/05 06:07:47;;;;;;;3.47;2.00;;;;;;;18.08;87.65;99103.91;5030713;28;20021;-74
2022/07/05 06:10:20;;;;;;;2.28;1.92;;;;;;;18.32;83.91;99110.09;5030413;28;20386;-78
2022/07/05 06:12:46;;;;;;;5.22;1.77;;;;;;;18.46;82.33;99105.13;5029937;28;20037;-76
2022/07/05 06:15:11;;;;;;;3.28;1.90;;;;;;;18.64;81.31;99093.09;5028669;28;20032;-71
2022/07/05 06:17:37;;;;;;;6.35;2.13;;;;;;;18.74;80.51;99097.94;5025892;28;20032;-68
2022/07/05 06:20:18;;;;;;;2.85;1.48;;;;;;;18.93;78.71;99113.06;5030593;28;20391;-72
2022/07/05 06:22:44;;;;;;;5.47;1.60;;;;;;;18.98;76.33;99110.41;5027303;28;20026;-72
2022/07/05 06:25:10;;;;;;;5.55;1.70;;;;;;;19.29;78.61;99123.75;5027660;28;20033;-72
2022/07/05 06:27:43;;;;;;;3.85;1.50;;;;;;;19.60;75.75;99128.56;5023856;28;20708;-72
2022/07/05 06:30:09;;;;;;;3.25;2.00;;;;;;;19.86;74.57;99118.78;5020742;28;20386;-72
2022/07/05 06:32:35;;;;;;;4.65;1.88;;;;;;;19.91;73.47;99116.09;5040414;28;20116;-75
2022/07/05 06:35:00;;;;;;;3.78;1.60;;;;;;;20.34;71.45;99119.00;5028253;28;20117;-74
2022/07/05 06:37:25;;;;;;;5.82;1.50;;;;;;;20.48;69.24;99131.22;5024882;28;20080;-72
2022/07/05 06:39:51;;;;;;;3.78;1.48;;;;;;;20.72;67.14;99123.53;5024838;28;20070;-74
2022/07/05 06:42:16;;;;;;;4.00;1.23;;;;;;;20.71;64.67;99116.34;5032148;28;20083;-73
2022/07/05 06:44:43;;;;;;;3.58;1.30;;;;;;;20.99;62.13;99131.72;5026455;28;20017;-68
2022/07/05 06:47:08;;;;;;;1.95;1.25;;;;;;;21.17;63.17;99127.72;5024565;28;20025;-66
2022/07/05 06:49:33;;;;;;;6.40;1.27;;;;;;;21.67;60.28;99129.13;5026590;28;20040;-69
2022/07/05 06:51:59;;;;;;;1.45;0.80;;;;;;;21.89;56.75;99128.13;5028992;28;20124;-68
2022/07/05 06:54:24;;;;;;;3.95;1.10;;;;;;;22.31;55.12;99124.41;5027555;28;20029;-73
2022/07/05 06:56:49;;;;;;;1.63;0.90;;;;;;;22.98;54.18;99130.84;5020369;28;20479;-68
2022/07/05 06:59:15;;;;;;;1.67;0.93;;;;;;;23.59;52.30;99122.44;5022128;28;20033;-69
2022/07/05 07:01:40;;;;;;;1.83;1.00;;;;;;;24.69;48.75;99122.47;5024148;28;20036;-70
2022/07/05 07:04:05;;;;;;;3.03;1.00;;;;;;;25.69;46.11;99123.72;5027523;28;20025;-70
2022/07/05 07:06:30;;;;;;;4.07;0.90;;;;;;;26.88;43.52;99121.81;5025234;28;20025;-70
2022/07/05 07:11:40;;;;;;;2.00;0.85;;;;;;;29.87;38.04;99126.00;5023136;28;20117;-69
2022/07/05 07:14:05;;;;;;;2.80;1.05;;;;;;;31.75;33.12;99129.38;5016791;28;20030;-69
2022/07/05 07:16:30;;;;;;;1.83;0.68;;;;;;;31.58;33.59;99130.28;5013764;28;20033;-69
2022/07/05 07:18:57;;;;;;;3.03;0.80;;;;;;;33.33;31.52;99130.69;5022059;28;20471;-69
2022/07/05 07:21:22;;;;;;;0.70;0.70;;;;;;;34.06;30.13;99129.16;5016520;28;20037;-72
2022/07/05 07:23:47;;;;;;;1.70;0.73;;;;;;;34.50;29.45;99134.09;5022649;28;20021;-73
2022/07/05 07:26:13;;;;;;;1.30;0.55;;;;;;;35.49;28.89;99129.72;5026314;28;20637;-72
2022/07/05 07:28:39;;;;;;;2.20;0.70;;;;;;;31.96;32.56;99125.84;5029002;28;20112;-72
2022/07/05 07:31:04;;;;;;;3.42;0.85;;;;;;;35.08;28.59;99129.00;5024195;28;20029;-72
2022/07/05 07:33:29;;;;;;;2.88;0.80;;;;;;;35.66;28.69;99123.78;5020585;28;20025;-75
2022/07/05 07:35:55;;;;;;;1.35;0.80;;;;;;;35.83;27.93;99122.56;5028055;28;20378;-73
2022/07/05 07:38:20;;;;;;;1.95;0.63;;;;;;;36.37;27.25;99129.50;5028853;28;20164;-73
2022/07/05 07:40:45;;;;;;;3.25;0.60;;;;;;;36.46;26.71;99106.75;5029746;28;20047;-79
2022/07/05 07:43:11;;;;;;;3.38;0.65;;;;;;;37.03;25.83;99127.72;5030543;28;20432;-69
2022/07/05 07:45:36;;;;;;;1.85;0.50;;;;;;;36.77;25.83;99119.91;5027846;28;20032;-72
2022/07/05 07:48:01;;;;;;;1.30;0.53;;;;;;;37.10;25.41;99127.88;5022351;28;20032;-72
2022/07/05 07:50:27;;;;;;;1.20;0.63;;;;;;;34.91;27.97;99130.13;5024210;28;20670;-76
2022/07/05 07:52:52;;;;;;;6.13;0.80;;;;;;;36.27;26.54;99119.63;5025876;28;20060;-79
2022/07/05 07:55:17;;;;;;;1.13;0.43;;;;;;;36.47;26.22;99119.63;5025432;28;20525;-78
2022/07/05 07:57:43;;;;;;;2.13;0.70;;;;;;;37.35;25.84;99131.13;5027657;28;20025;-75
2022/07/05 08:00:08;;;;;;;1.80;0.43;;;;;;;38.65;24.55;99137.72;5018783;28;20030;-77
2022/07/05 08:02:34;;;;;;;1.50;0.68;;;;;;;35.49;25.21;99121.28;5029799;28;20320;-82
2022/07/05 08:04:59;;;;;;;1.00;0.50;;;;;;;36.38;26.34;99119.84;5033181;28;20039;-79
2022/07/05 08:07:25;;;;;;;1.02;0.47;;;;;;;37.50;24.36;99116.13;5024431;28;20140;-75
2022/07/05 08:09:52;;;;;;;4.95;0.73;;;;;;;37.66;23.91;99124.47;5027953;28;20035;-74
2022/07/05 08:12:18;;;;;;;5.10;0.60;;;;;;;37.83;24.67;99142.06;5033094;28;20113;-76
2022/07/05 08:14:43;;;;;;;1.83;0.50;;;;;;;37.36;23.73;99117.84;5035795;28;20474;-76
2022/07/05 08:17:09;;;;;;;1.73;0.50;;;;;;;37.26;23.80;99125.75;5032753;28;20030;-76
2022/07/05 08:22:21;;;;;;;2.83;0.52;;;;;;;38.18;23.15;99124.91;5033396;28;20048;-76
2022/07/05 08:24:46;;;;;;;3.90;0.52;;;;;;;38.64;22.95;99121.13;5028555;28;20030;-76
2022/07/05 08:27:12;;;;;;;2.83;0.40;;;;;;;38.32;22.95;99129.94;5035327;28;20170;-74
2022/07/05 08:29:37;;;;;;;2.67;0.50;;;;;;;38.10;23.66;99131.66;5034675;28;20037;-72
2022/07/05 08:32:04;;;;;;;1.02;0.60;;;;;;;38.09;23.99;99130.00;5025978;28;20034;-73
2022/07/05 08:34:29;;;;;;;2.97;0.50;;;;;;;38.38;23.76;99134.06;5024851;28;20017;-75
2022/07/05 08:36:55;;;;;;;2.97;0.50;;;;;;;38.43;22.64;99130.94;5028168;28;20514;-76
2022/07/05 08:39:20;;;;;;;2.53;0.60;;;;;;;37.67;23.08;99123.25;5024911;28;20077;-76
2022/07/05 08:41:52;;;;;;;0.75;0.50;;;;;;;39.49;23.46;99132.66;5024820;28;20227;-75
2022/07/05 08:44:22;;;;;;;1.95;0.45;;;;;;;39.36;22.88;99129.28;5027722;28;20371;-74
2022/07/05 08:46:50;;;;;;;0.70;0.50;;;;;;;38.90;23.14;99134.41;5022402;28;20117;-75
2022/07/05 08:49:23;;;;;;;1.63;0.52;;;;;;;37.84;23.19;99135.25;5026711;28;20021;-75
2022/07/05 08:51:49;;;;;;;2.60;0.65;;;;;;;38.63;23.92;99119.50;5025456;28;20483;-75
2022/07/05 08:54:16;;;;;;;2.58;0.60;;;;;;;40.04;22.60;99132.72;5020894;28;20028;-75
2022/07/05 08:56:45;;;;;;;3.20;0.65;;;;;;;39.10;23.42;99133.03;5021944;28;20025;-74
2022/07/05 08:59:10;;;;;;;1.45;0.70;;;;;;;38.64;22.94;99129.59;5022198;28;20501;-78
2022/07/05 09:01:38;;;;;;;1.23;0.47;;;;;;;38.97;23.83;99126.81;5032138;28;20033;-77
2022/07/05 09:04:05;;;;;;;3.57;0.73;;;;;;;37.82;24.11;99126.34;5026594;28;20037;-74
2022/07/05 09:06:34;;;;;;;3.00;0.60;;;;;;;38.70;23.72;99126.06;5025978;28;20133;-73
2022/07/05 09:09:00;;;;;;;0.85;0.50;;;;;;;39.00;23.83;99128.88;5023373;28;20403;-76
2022/07/05 09:11:35;;;;;;;1.23;0.50;;;;;;;39.95;21.98;99126.56;5040116;28;20021;-75
2022/07/05 09:14:02;;;;;;;2.10;0.45;;;;;;;39.61;22.32;99123.03;5052288;28;20029;-76
2022/07/05 09:16:27;;;;;;;2.28;0.80;;;;;;;39.43;22.34;99120.03;5050901;28;20021;-74
2022/07/05 09:18:54;;;;;;;2.00;0.50;;;;;;;38.95;23.07;99131.22;5042218;28;20143;-76
2022/07/05 09:21:24;;;;;;;3.53;0.50;;;;;;;39.12;22.81;99115.63;5048485;28;20044;-75
2022/07/05 09:23:58;;;;;;;1.52;0.60;;;;;;;40.03;23.01;99121.75;5049965;28;20051;-74
2022/07/05 09:26:40;;;;;;;0.43;0.40;;;;;;;40.06;23.24;99124.66;5043911;28;20022;-74
2022/07/05 09:29:09;;;;;;;6.72;0.73;;;;;;;39.59;23.30;99119.75;5037578;28;20034;-74
2022/07/05 09:31:36;;;;;;;1.40;0.63;;;;;;;39.87;23.44;99124.88;5050891;28;20033;-74
2022/07/05 09:34:08;;;;;;;3.40;0.60;;;;;;;40.34;23.11;99131.72;5044610;28;20021;-73
2022/07/05 09:37:01;;;;;;;1.52;0.50;;;;;;;39.11;22.91;99131.81;5033639;28;20446;-70
2022/07/05 09:39:29;;;;;;;2.00;0.50;;;;;;;38.13;24.83;99126.03;5026428;28;20542;-72
2022/07/05 09:42:20;;;;;;;1.80;0.55;;;;;;;39.24;23.64;99129.53;5027339;28;20037;-72
2022/07/05 09:44:52;;;;;;;0.90;0.43;;;;;;;39.39;23.20;99139.00;5029767;28;20363;-73
2022/07/05 09:47:22;;;;;;;1.33;0.30;;;;;;;39.14;22.56;99125.38;5025055;28;20029;-73
2022/07/05 09:49:52;;;;;;;1.33;0.30;;;;;;;38.97;23.45;99137.31;5025616;28;20510;-72
2022/07/05 09:52:26;;;;;;;2.50;0.63;;;;;;;38.58;23.46;99138.41;5030357;28;20053;-72
2022/07/05 09:55:07;;;;;;;1.73;0.50;;;;;;;39.90;22.38;99137.47;5029731;28;20067;-77
2022/07/05 09:57:35;;;;;;;2.15;0.50;;;;;;;39.99;22.09;99137.94;5028373;28;20028;-77
2022/07/05 10:00:07;;;;;;;1.75;0.73;;;;;;;40.07;21.69;99134.75;5025846;28;20628;-77
2022/07/05 10:02:41;;;;;;;1.90;0.60;;;;;;;39.96;22.03;99133.06;5026796;28;20111;-71
2022/07/05 10:05:10;;;;;;;3.53;0.43;;;;;;;39.23;21.65;99134.38;5026479;28;20029;-72
2022/07/05 10:07:36;;;;;;;1.00;0.40;;;;;;;38.44;22.46;99135.41;5018756;28;20033;-71
2022/07/05 10:10:02;;;;;;;1.42;0.35;;;;;;;39.44;22.33;99125.31;5023272;28;20083;-71
2022/07/05 10:12:30;;;;;;;2.53;0.57;;;;;;;39.80;22.10;99128.50;5023466;28;20040;-76
2022/07/05 10:14:58;;;;;;;6.80;0.40;;;;;;;40.57;20.02;99119.28;5029606;28;20087;-74
2022/07/05 10:17:24;;;;;;;2.13;0.50;;;;;;;40.18;20.36;99123.50;5019722;28;20034;-72
2022/07/05 10:19:51;;;;;;;2.00;0.40;;;;;;;39.42;21.14;99113.56;5024579;28;20021;-80
2022/07/05 10:22:16;;;;;;;2.85;0.60;;;;;;;36.52;23.73;99120.16;5025553;28;20530;-73
2022/07/05 10:24:42;;;;;;;0.80;0.40;;;;;;;34.23;25.74;99116.84;5024171;28;20033;-74
2022/07/05 10:27:08;;;;;;;2.78;0.50;;;;;;;32.00;27.57;99133.22;5024523;28;20383;-73
2022/07/05 10:29:34;;;;;;;1.88;0.50;;;;;;;34.21;26.25;99117.19;5021503;28;20223;-73
2022/07/05 10:32:01;;;;;;;3.50;0.40;;;;;;;36.27;23.95;99125.25;5026911;28;20025;-73
2022/07/05 10:34:28;;;;;;;1.42;0.40;;;;;;;37.88;22.54;99121.97;5040747;28;20104;-73
2022/07/05 10:36:53;;;;;;;1.65;0.50;;;;;;;35.85;24.10;99123.03;5040009;28;20022;-75
2022/07/05 10:39:19;;;;;;;1.83;0.40;;;;;;;34.68;25.10;99127.88;5024222;28;20029;-73
2022/07/05 10:41:44;;;;;;;1.45;0.65;;;;;;;35.12;24.80;99125.13;5028139;28;20276;-70
2022/07/05 10:44:10;;;;;;;0.75;0.40;;;;;;;34.80;24.96;99120.59;5031491;28;20095;-69
2022/07/05 10:46:37;;;;;;;1.00;0.30;;;;;;;36.63;22.67;99128.91;5027602;28;20045;-70
2022/07/05 10:49:20;;;;;;;1.27;0.50;;;;;;;37.28;22.37;99120.56;5023264;28;20454;-69
2022/07/05 10:51:46;;;;;;;0.95;0.38;;;;;;;38.21;21.58;99103.56;5029899;28;20048;-70
2022/07/05 10:54:12;;;;;;;1.83;0.50;;;;;;;39.16;21.07;99110.84;5021943;28;20033;-75
2022/07/05 10:56:38;;;;;;;2.20;0.40;;;;;;;39.26;21.88;99107.31;5023080;28;20553;-74
2022/07/05 10:59:09;;;;;;;2.95;0.45;;;;;;;39.80;21.20;99119.16;5025799;28;20033;-77
2022/07/05 11:01:39;;;;;;;0.60;0.38;;;;;;;39.56;20.47;99114.88;5028049;28;20379;-73
2022/07/05 11:04:05;;;;;;;1.63;0.40;;;;;;;38.35;21.62;99117.88;5028234;28;20105;-79
2022/07/05 11:06:44;;;;;;;1.02;0.40;;;;;;;37.12;22.95;99116.19;5025893;28;20143;-73
2022/07/05 11:09:09;;;;;;;2.88;0.50;;;;;;;38.29;22.85;99117.41;5028137;28;20029;-72
2022/07/05 11:11:34;;;;;;;2.53;0.40;;;;;;;38.73;22.17;99118.81;5028120;28;20036;-73
2022/07/05 11:14:02;;;;;;;0.83;0.50;;;;;;;37.81;21.48;99107.75;5023747;28;20116;-73
2022/07/05 11:16:31;;;;;;;0.77;0.35;;;;;;;37.98;22.29;99104.41;5024023;28;20025;-74
2022/07/05 11:19:11;;;;;;;0.60;0.40;;;;;;;37.62;21.54;99123.56;5025427;28;20039;-71
2022/07/05 11:22:03;;;;;;;1.42;0.60;;;;;;;38.88;21.52;99120.63;5026968;28;20029;-72
2022/07/05 11:24:30;;;;;;;1.58;0.28;;;;;;;39.15;21.10;99117.72;5027396;28;20040;-73
2022/07/05 11:27:00;;;;;;;0.77;0.40;;;;;;;39.54;20.54;99108.78;5025542;28;20569;-73
2022/07/05 11:29:46;;;;;;;1.20;0.50;;;;;;;39.72;20.56;99104.13;5021689;28;20040;-73
2022/07/05 11:32:21;;;;;;;1.92;0.40;;;;;;;38.00;20.75;99112.53;5031566;28;20033;-80
2022/07/05 11:34:52;;;;;;;3.38;0.50;;;;;;;39.51;21.14;99109.59;5025339;28;20045;-73